createdAt,value
2023-03-06T00:00:59.051Z,77.06
2023-03-06T00:03:28.317Z,77.95
2023-03-06T00:05:59.144Z,78.51
2023-03-06T00:08:28.472Z,77.68
2023-03-06T00:11:01.018Z,75.88
2023-03-06T00:13:35.355Z,75.07
2023-03-06T00:16:07.269Z,75.12
2023-03-06T00:18:35.894Z,75.79
2023-03-06T00:21:11.334Z,76.87
2023-03-06T00:23:41.556Z,77.67
2023-03-06T00:26:10.257Z,78.13
2023-03-06T00:28:39.843Z,78.02
2023-03-06T00:31:15.622Z,76.65
2023-03-06T00:33:47.659Z,74.67
2023-03-06T00:36:16.662Z,74.49
2023-03-06T00:38:45.342Z,74.53
2023-03-06T00:41:13.852Z,75.08
2023-03-06T00:43:42.700Z,75.49
2023-03-06T00:46:11.330Z,76.27
2023-03-06T00:48:41.204Z,76.92
2023-03-06T00:51:13.481Z,77.40
2023-03-06T00:53:43.795Z,75.35
2023-03-06T00:56:12.273Z,73.86
2023-03-06T00:58:41.582Z,73.94
2023-03-06T01:01:10.076Z,74.18
2023-03-06T01:03:40.481Z,74.76
2023-03-06T01:06:10.292Z,75.56
2023-03-06T01:08:39.284Z,76.36
2023-03-06T01:11:08.830Z,76.74
2023-03-06T01:13:37.468Z,76.16
2023-03-06T01:16:09.190Z,74.27
2023-03-06T01:18:38.357Z,73.80
2023-03-06T01:21:06.801Z,73.91
2023-03-06T01:23:36.827Z,74.79
2023-03-06T01:26:05.946Z,75.43
2023-03-06T01:28:35.420Z,76.22
2023-03-06T01:31:04.420Z,76.49
2023-03-06T01:33:34.493Z,75.04
2023-03-06T01:36:08.405Z,74.55
2023-03-06T01:38:37.842Z,74.40
2023-03-06T01:41:06.495Z,74.59
2023-03-06T01:43:36.234Z,75.38
2023-03-06T01:46:19.783Z,75.80
2023-03-06T01:48:48.458Z,77.12
2023-03-06T01:51:16.736Z,75.77
2023-03-06T01:53:45.317Z,75.02
2023-03-06T01:56:14.310Z,75.59
2023-03-06T01:58:44.057Z,76.29
2023-03-06T02:01:13.483Z,77.35
2023-03-06T02:03:42.107Z,77.93
2023-03-06T02:06:13.282Z,77.77
2023-03-06T02:08:50.246Z,76.31
2023-03-06T02:11:26.128Z,74.40
2023-03-06T02:13:55.719Z,74.67
2023-03-06T02:16:29.229Z,75.45
2023-03-06T02:19:02.956Z,76.63
2023-03-06T02:21:36.507Z,76.66
2023-03-06T02:24:11.880Z,77.75
2023-03-06T02:26:41.034Z,77.82
2023-03-06T02:29:12.310Z,76.86
2023-03-06T02:31:42.516Z,75.98
2023-03-06T02:34:17.038Z,76.50
2023-03-06T02:36:49.190Z,77.34
2023-03-06T02:39:19.001Z,77.96
2023-03-06T02:41:48.615Z,78.61
2023-03-06T02:44:17.617Z,79.64
2023-03-06T02:46:46.128Z,78.15
2023-03-06T02:49:14.764Z,76.67
2023-03-06T02:51:44.000Z,76.68
2023-03-06T02:54:13.590Z,77.70
2023-03-06T02:56:45.339Z,78.21
2023-03-06T02:59:14.110Z,79.06
2023-03-06T03:01:47.952Z,79.72
2023-03-06T03:04:16.823Z,79.05
2023-03-06T03:06:45.597Z,77.12
2023-03-06T03:09:14.294Z,76.94
2023-03-06T03:11:44.612Z,77.22
2023-03-06T03:14:13.571Z,77.61
2023-03-06T03:16:42.086Z,78.46
2023-03-06T03:19:10.761Z,79.92
2023-03-06T03:21:40.984Z,80.28
2023-03-06T03:24:09.575Z,79.42
2023-03-06T03:26:38.160Z,77.70
2023-03-06T03:29:11.005Z,77.40
2023-03-06T03:31:39.630Z,77.71
2023-03-06T03:34:08.931Z,78.00
2023-03-06T03:36:40.930Z,78.94
2023-03-06T03:39:12.143Z,79.59
2023-03-06T03:41:40.711Z,80.48
2023-03-06T03:44:10.529Z,79.24
2023-03-06T03:46:41.716Z,78.48
2023-03-06T03:49:14.969Z,77.97
2023-03-06T03:51:44.362Z,77.86
2023-03-06T03:54:13.083Z,78.76
2023-03-06T03:56:44.727Z,79.69
2023-03-06T04:02:21.137Z,79.34
2023-03-06T04:04:55.072Z,77.34
2023-03-06T04:07:22.766Z,77.62
2023-03-06T04:09:50.151Z,77.77
2023-03-06T04:12:18.604Z,77.60
2023-03-06T04:14:47.076Z,78.38
2023-03-06T04:17:14.548Z,78.96
2023-03-06T04:19:41.691Z,78.90
2023-03-06T04:22:08.793Z,76.90
2023-03-06T04:24:37.421Z,76.41
2023-03-06T04:27:08.150Z,77.02
2023-03-06T04:29:35.838Z,77.46
2023-03-06T04:32:03.270Z,77.85
2023-03-06T04:34:30.521Z,78.73
2023-03-06T04:37:02.298Z,79.43
2023-03-06T04:39:30.144Z,78.45
2023-03-06T04:41:57.540Z,76.36
2023-03-06T04:44:25.783Z,75.63
2023-03-06T04:46:53.236Z,76.49
2023-03-06T04:49:20.403Z,76.87
2023-03-06T04:51:47.374Z,77.45
2023-03-06T04:54:14.380Z,78.45
2023-03-06T04:56:41.525Z,78.27
2023-03-06T04:59:10.106Z,76.44
2023-03-06T05:01:37.567Z,75.73
2023-03-06T05:04:05.531Z,75.73
2023-03-06T05:06:33.330Z,75.78
2023-03-06T05:09:00.445Z,76.25
2023-03-06T05:11:27.619Z,75.85
2023-03-06T05:13:55.966Z,75.70
2023-03-06T05:16:23.038Z,76.09
2023-03-06T05:18:50.739Z,75.19
2023-03-06T05:21:17.950Z,73.81
2023-03-06T05:23:45.030Z,73.03
2023-03-06T05:26:13.066Z,73.16
2023-03-06T05:28:40.297Z,73.39
2023-03-06T05:31:08.816Z,74.08
2023-03-06T05:33:36.027Z,73.60
2023-03-06T05:36:04.202Z,73.93
2023-03-06T05:38:31.870Z,73.70
2023-03-06T05:40:59.014Z,74.04
2023-03-06T05:43:26.223Z,74.93
2023-03-06T05:46:01.627Z,73.81
2023-03-06T05:48:29.074Z,72.51
2023-03-06T05:50:57.659Z,71.57
2023-03-06T05:53:26.455Z,71.19
2023-03-06T05:56:05.029Z,71.63
2023-03-06T05:58:33.535Z,72.18
2023-03-06T06:01:00.812Z,72.64
2023-03-06T06:03:27.985Z,72.66
2023-03-06T06:05:55.289Z,73.20
2023-03-06T06:08:22.339Z,73.41
2023-03-06T06:10:52.192Z,74.08
2023-03-06T06:13:23.909Z,72.21
2023-03-06T06:15:57.876Z,69.99
2023-03-06T06:18:25.109Z,69.50
2023-03-06T06:20:53.435Z,70.03
2023-03-06T06:23:21.727Z,69.86
2023-03-06T06:25:48.773Z,70.79
2023-03-06T06:28:16.281Z,70.78
2023-03-06T06:30:44.028Z,70.75
2023-03-06T06:33:11.761Z,71.22
2023-03-06T06:35:38.827Z,70.69
2023-03-06T06:38:07.685Z,70.79
2023-03-06T06:40:35.483Z,70.71
2023-03-06T06:43:02.807Z,69.66
2023-03-06T06:45:30.572Z,69.56
2023-03-06T06:47:57.688Z,70.03
2023-03-06T06:50:24.790Z,69.86
2023-03-06T06:52:52.251Z,69.80
2023-03-06T06:55:21.318Z,69.60
2023-03-06T06:57:48.478Z,69.89
2023-03-06T07:00:17.480Z,69.18
2023-03-06T07:02:48.709Z,68.59
2023-03-06T07:05:15.916Z,68.71
2023-03-06T07:07:44.448Z,68.94
2023-03-06T07:10:13.746Z,68.50
2023-03-06T07:12:45.294Z,68.35
2023-03-06T07:15:14.611Z,68.18
2023-03-06T07:17:42.252Z,67.94
2023-03-06T07:20:13.440Z,68.25
2023-03-06T07:22:50.398Z,68.63
2023-03-06T07:25:19.080Z,68.67
2023-03-06T07:27:52.762Z,68.89
2023-03-06T07:30:22.594Z,69.17
2023-03-06T07:32:53.526Z,67.43
2023-03-06T07:35:21.081Z,65.24
2023-03-06T07:37:48.359Z,65.23
2023-03-06T07:40:15.892Z,65.30
2023-03-06T07:42:43.039Z,65.04
2023-03-06T07:45:12.765Z,65.76
2023-03-06T07:47:40.729Z,65.14
2023-03-06T07:50:10.445Z,65.96
2023-03-06T07:52:39.150Z,65.37
2023-03-06T07:55:07.595Z,66.18
2023-03-06T07:57:36.183Z,65.85
2023-03-06T08:00:05.232Z,65.43
2023-03-06T08:02:40.753Z,65.29
2023-03-06T08:05:09.305Z,65.69
2023-03-06T08:07:36.976Z,66.09
2023-03-06T08:10:05.137Z,66.75
2023-03-06T08:12:32.308Z,66.44
2023-03-06T08:14:59.430Z,65.62
2023-03-06T08:17:32.011Z,65.23
2023-03-06T08:19:59.069Z,64.30
2023-03-06T08:22:26.118Z,63.03
2023-03-06T08:24:55.920Z,62.36
2023-03-06T08:27:23.470Z,61.60
2023-03-06T08:29:51.746Z,61.64
2023-03-06T08:32:19.005Z,62.09
2023-03-06T08:34:46.253Z,61.15
2023-03-06T08:37:16.910Z,60.95
2023-03-06T08:39:45.135Z,61.06
2023-03-06T08:42:12.414Z,61.15
2023-03-06T08:44:39.795Z,61.03
2023-03-06T08:47:07.130Z,59.02
2023-03-06T08:49:35.594Z,61.49
2023-03-06T08:52:03.166Z,61.61
2023-03-06T08:54:33.990Z,61.15
2023-03-06T08:57:01.528Z,59.97
2023-03-06T08:59:28.905Z,60.73
2023-03-06T09:01:56.151Z,59.61
2023-03-06T09:04:37.440Z,60.09
2023-03-06T09:07:05.207Z,60.92
2023-03-06T09:09:32.560Z,60.25
2023-03-06T09:12:01.347Z,60.10
2023-03-06T09:14:28.734Z,60.53
2023-03-06T09:16:56.126Z,61.04
2023-03-06T09:19:23.438Z,60.35
2023-03-06T09:21:51.268Z,60.29
2023-03-06T09:24:21.259Z,60.37
2023-03-06T09:26:50.489Z,60.53
2023-03-06T09:29:18.679Z,58.94
2023-03-06T09:31:47.887Z,57.72
2023-03-06T09:34:15.119Z,57.90
2023-03-06T09:36:55.939Z,57.01
2023-03-06T09:39:25.408Z,56.84
2023-03-06T09:41:52.454Z,55.48
2023-03-06T09:44:25.521Z,54.88
2023-03-06T09:47:17.591Z,53.15
2023-03-06T09:50:13.594Z,52.00
2023-03-06T09:52:43.717Z,52.31
2023-03-06T09:55:15.080Z,51.23
2023-03-06T09:57:44.872Z,52.68
2023-03-06T10:00:16.408Z,51.97
2023-03-06T10:02:50.065Z,52.67
2023-03-06T10:05:28.832Z,51.26
2023-03-06T10:08:11.032Z,50.67
2023-03-06T10:11:01.639Z,52.90
2023-03-06T10:13:49.972Z,52.08
2023-03-06T10:16:30.853Z,51.21
2023-03-06T10:19:03.490Z,49.34
2023-03-06T10:21:34.161Z,49.76
2023-03-06T10:24:25.101Z,48.80
2023-03-06T10:26:58.173Z,50.77
2023-03-06T10:29:56.416Z,52.46
2023-03-06T10:32:46.185Z,53.35
2023-03-06T10:35:21.238Z,54.11
2023-03-06T10:37:48.198Z,53.09
2023-03-06T10:40:17.975Z,52.26
2023-03-06T10:42:45.764Z,52.19
2023-03-06T10:45:16.642Z,52.68
2023-03-06T10:47:44.482Z,52.41
2023-03-06T10:50:26.014Z,53.73
2023-03-06T10:53:01.744Z,55.65
2023-03-06T10:55:34.597Z,55.74
2023-03-06T10:58:28.888Z,55.93
2023-03-06T11:01:07.713Z,56.23
2023-03-06T11:03:36.109Z,57.10
2023-03-06T11:06:13.487Z,57.33
2023-03-06T11:08:43.741Z,58.32
2023-03-06T11:11:18.510Z,58.85
2023-03-06T11:13:58.162Z,59.47
2023-03-06T11:16:32.498Z,59.24
2023-03-06T11:19:06.606Z,58.59
2023-03-06T11:21:36.028Z,58.18
2023-03-06T11:24:08.183Z,58.31
2023-03-06T11:26:40.639Z,57.94
2023-03-06T11:29:38.531Z,58.50
2023-03-06T11:32:19.800Z,58.75
2023-03-06T11:35:15.647Z,56.44
2023-03-06T11:37:53.536Z,56.66
2023-03-06T11:40:31.534Z,56.39
2023-03-06T11:43:04.724Z,56.20
2023-03-06T11:45:43.719Z,56.71
2023-03-06T11:48:14.064Z,56.82
2023-03-06T11:50:48.934Z,57.32
2023-03-06T11:53:27.811Z,56.75
2023-03-06T11:56:31.818Z,57.13
2023-03-06T11:59:24.341Z,57.22
2023-03-06T12:02:23.314Z,58.50
2023-03-06T12:05:09.481Z,58.78
2023-03-06T12:08:16.384Z,58.49
2023-03-06T12:11:22.825Z,58.50
2023-03-06T12:14:11.770Z,58.56
2023-03-06T12:16:45.627Z,58.58
2023-03-06T12:19:33.001Z,59.04
2023-03-06T12:22:36.306Z,60.90
2023-03-06T12:25:06.539Z,60.32
2023-03-06T12:27:49.341Z,59.69
2023-03-06T12:30:38.204Z,59.68
2023-03-06T12:33:31.696Z,59.43
2023-03-06T12:36:08.258Z,60.08
2023-03-06T12:38:55.190Z,60.48
2023-03-06T12:41:24.046Z,59.81
2023-03-06T12:43:54.363Z,60.64
2023-03-06T12:46:24.703Z,60.30
2023-03-06T12:49:01.933Z,60.15
2023-03-06T12:51:29.121Z,58.49
2023-03-06T12:53:57.092Z,57.44
2023-03-06T12:56:23.948Z,56.74
2023-03-06T12:58:55.802Z,57.76
2023-03-06T13:02:13.931Z,56.83
2023-03-06T13:05:03.107Z,57.20
2023-03-06T13:07:36.912Z,58.43
2023-03-06T13:10:27.880Z,57.93
2023-03-06T13:13:04.728Z,57.52
2023-03-06T13:15:48.944Z,57.62
2023-03-06T13:18:22.453Z,57.05
2023-03-06T13:20:54.830Z,57.56
2023-03-06T13:23:34.982Z,57.93
2023-03-06T13:26:24.552Z,58.60
2023-03-06T13:28:53.546Z,59.81
2023-03-06T13:31:33.257Z,59.12
2023-03-06T13:34:09.060Z,60.33
2023-03-06T13:36:39.482Z,61.46
2023-03-06T13:39:11.134Z,63.77
2023-03-06T13:41:42.363Z,65.69
2023-03-06T13:44:25.194Z,65.61
2023-03-06T13:46:59.652Z,66.33
2023-03-06T13:49:27.613Z,65.86
2023-03-06T13:51:54.957Z,66.54
2023-03-06T13:54:29.055Z,66.50
2023-03-06T13:57:22.093Z,67.28
2023-03-06T13:59:59.599Z,67.49
2023-03-06T14:02:54.543Z,66.97
2023-03-06T14:05:22.361Z,65.97
2023-03-06T14:08:25.630Z,65.41
2023-03-06T14:11:08.250Z,64.50
2023-03-06T14:13:47.565Z,65.06
2023-03-06T14:16:37.578Z,65.43
2023-03-06T14:19:16.095Z,65.55
2023-03-06T14:21:55.234Z,65.73
2023-03-06T14:24:34.872Z,65.87
2023-03-06T14:27:02.322Z,66.03
2023-03-06T14:29:30.326Z,65.92
2023-03-06T14:31:58.766Z,66.52
2023-03-06T14:34:28.080Z,66.67
2023-03-06T14:37:01.094Z,66.80
2023-03-06T14:39:41.964Z,67.40
2023-03-06T14:42:17.601Z,66.89
2023-03-06T14:44:45.968Z,64.96
2023-03-06T14:47:29.298Z,64.10
2023-03-06T14:50:18.972Z,64.44
2023-03-06T14:52:45.911Z,64.53
2023-03-06T14:55:21.045Z,64.63
2023-03-06T14:58:11.568Z,65.08
2023-03-06T15:00:41.351Z,65.57
2023-03-06T15:03:24.065Z,65.73
2023-03-06T15:05:51.322Z,66.19
2023-03-06T15:08:24.926Z,66.35
2023-03-06T15:11:00.990Z,66.15
2023-03-06T15:13:32.440Z,66.21
2023-03-06T15:16:00.850Z,66.50
2023-03-06T15:18:38.428Z,66.63
2023-03-06T15:21:20.019Z,66.57
2023-03-06T15:23:48.466Z,66.62
2023-03-06T15:26:28.049Z,66.56
2023-03-06T15:29:08.312Z,66.75
2023-03-06T15:31:38.515Z,67.27
2023-03-06T15:34:06.040Z,67.71
2023-03-06T15:36:34.641Z,68.31
2023-03-06T15:39:01.918Z,66.68
2023-03-06T15:41:35.350Z,64.81
2023-03-06T15:44:12.675Z,63.46
2023-03-06T15:46:40.427Z,63.42
2023-03-06T15:49:16.795Z,63.40
2023-03-06T15:51:44.149Z,63.74
2023-03-06T15:54:12.654Z,64.65
2023-03-06T15:56:41.783Z,65.40
2023-03-06T15:59:22.850Z,65.53
2023-03-06T16:01:54.364Z,66.00
2023-03-06T16:04:22.153Z,66.69
2023-03-06T16:06:49.822Z,68.15
2023-03-06T16:09:17.347Z,68.73
2023-03-06T16:11:46.847Z,68.88
2023-03-06T16:14:19.625Z,69.08
2023-03-06T16:16:47.212Z,70.09
2023-03-06T16:19:25.286Z,69.79
2023-03-06T16:21:54.094Z,67.90
2023-03-06T16:24:21.346Z,67.57
2023-03-06T16:26:52.062Z,67.77
2023-03-06T16:29:22.080Z,68.01
2023-03-06T16:31:49.539Z,68.77
2023-03-06T16:34:21.294Z,69.65
2023-03-06T16:36:49.705Z,69.89
2023-03-06T16:39:18.472Z,70.04
2023-03-06T16:41:48.987Z,70.71
2023-03-06T16:44:16.241Z,71.25
2023-03-06T16:46:45.430Z,71.80
2023-03-06T16:49:17.140Z,71.38
2023-03-06T16:51:44.859Z,69.69
2023-03-06T16:54:12.208Z,68.70
2023-03-06T16:56:39.353Z,68.42
2023-03-06T16:59:11.406Z,69.02
2023-03-06T17:01:39.935Z,69.66
2023-03-06T17:04:07.650Z,69.90
2023-03-06T17:06:38.120Z,70.87
2023-03-06T17:09:05.656Z,71.73
2023-03-06T17:11:32.900Z,72.56
2023-03-06T17:14:01.694Z,73.12
2023-03-06T17:16:29.147Z,73.18
2023-03-06T17:18:57.939Z,71.62
2023-03-06T17:21:26.524Z,70.44
2023-03-06T17:23:54.181Z,70.54
2023-03-06T17:26:25.682Z,70.93
2023-03-06T17:28:53.905Z,71.74
2023-03-06T17:31:22.782Z,72.36
2023-03-06T17:33:51.174Z,73.04
2023-03-06T17:36:18.838Z,73.59
2023-03-06T17:38:46.758Z,74.08
2023-03-06T17:41:13.990Z,74.93
2023-03-06T17:43:41.103Z,75.84
2023-03-06T17:46:10.170Z,74.46
2023-03-06T17:48:37.654Z,73.83
2023-03-06T17:51:06.946Z,74.02
2023-03-06T17:53:34.416Z,74.62
2023-03-06T17:56:11.072Z,75.54
2023-03-06T17:58:39.479Z,76.06
2023-03-06T18:01:11.342Z,76.82
2023-03-06T18:03:38.878Z,76.46
2023-03-06T18:06:08.996Z,74.96
2023-03-06T18:08:43.525Z,74.70
2023-03-06T18:11:10.984Z,74.71
2023-03-06T18:13:39.763Z,74.97
2023-03-06T18:16:08.952Z,75.44
2023-03-06T18:18:37.251Z,76.01
2023-03-06T18:21:09.204Z,76.68
2023-03-06T18:23:40.458Z,76.91
2023-03-06T18:26:12.103Z,76.14
2023-03-06T18:28:43.816Z,74.65
2023-03-06T18:31:18.307Z,74.18
2023-03-06T18:33:50.749Z,74.48
2023-03-06T18:36:18.012Z,75.08
2023-03-06T18:38:45.670Z,75.34
2023-03-06T18:41:13.152Z,75.95
2023-03-06T18:43:43.857Z,76.86
2023-03-06T18:46:11.100Z,76.88
2023-03-06T18:48:38.256Z,75.46
2023-03-06T18:51:08.897Z,75.12
2023-03-06T18:53:39.825Z,75.46
2023-03-06T18:56:08.250Z,75.79
2023-03-06T18:58:36.697Z,76.46
2023-03-06T19:01:08.069Z,77.49
2023-03-06T19:03:37.975Z,77.12
2023-03-06T19:06:07.880Z,75.43
2023-03-06T19:08:35.832Z,74.65
2023-03-06T19:11:05.864Z,74.79
2023-03-06T19:13:33.615Z,75.29
2023-03-06T19:16:01.332Z,75.84
2023-03-06T19:18:34.064Z,76.17
2023-03-06T19:21:13.704Z,76.98
2023-03-06T19:23:41.273Z,77.16
2023-03-06T19:26:08.615Z,75.29
2023-03-06T19:28:37.104Z,74.26
2023-03-06T19:31:12.752Z,73.79
2023-03-06T19:33:41.341Z,73.98
2023-03-06T19:36:10.081Z,75.04
2023-03-06T19:38:38.603Z,75.71
2023-03-06T19:41:11.233Z,76.40
2023-03-06T19:43:40.496Z,77.09
2023-03-06T19:46:14.147Z,77.35
2023-03-06T19:48:42.058Z,75.75
2023-03-06T19:51:10.028Z,74.94
2023-03-06T19:53:39.625Z,74.98
2023-03-06T19:56:09.128Z,75.40
2023-03-06T19:58:36.799Z,76.05
2023-03-06T20:01:09.719Z,76.57
2023-03-06T20:03:36.923Z,77.09
2023-03-06T20:06:08.702Z,77.47
2023-03-06T20:08:43.000Z,77.64
2023-03-06T20:11:20.799Z,76.51
2023-03-06T20:13:48.262Z,75.45
2023-03-06T20:16:16.547Z,75.88
2023-03-06T20:18:46.603Z,75.89
2023-03-06T20:21:14.206Z,76.50
2023-03-06T20:23:41.583Z,77.27
2023-03-06T20:26:11.389Z,77.96
2023-03-06T20:28:39.957Z,78.27
2023-03-06T20:31:08.199Z,76.78
2023-03-06T20:33:36.293Z,76.09
2023-03-06T20:36:04.353Z,75.81
2023-03-06T20:38:36.015Z,76.21
2023-03-06T20:41:03.519Z,76.78
2023-03-06T20:43:31.259Z,77.35
2023-03-06T20:46:02.669Z,78.38
2023-03-06T20:48:29.840Z,77.86
2023-03-06T20:50:59.648Z,76.64
2023-03-06T20:53:26.814Z,75.87
2023-03-06T20:55:55.747Z,76.00
2023-03-06T20:58:25.401Z,76.21
2023-03-06T21:00:57.672Z,76.47
2023-03-06T21:03:44.583Z,77.36
2023-03-06T21:06:12.147Z,77.89
2023-03-06T21:08:39.211Z,76.76
2023-03-06T21:11:06.342Z,75.24
2023-03-06T21:13:34.251Z,74.80
2023-03-06T21:16:10.015Z,75.17
2023-03-06T21:18:37.312Z,75.66
2023-03-06T21:21:08.458Z,76.34
2023-03-06T21:23:36.542Z,76.69
2023-03-06T21:26:06.154Z,77.02
2023-03-06T21:28:34.048Z,75.32
2023-03-06T21:31:01.494Z,74.15
2023-03-06T21:33:29.430Z,74.06
2023-03-06T21:35:56.639Z,74.06
2023-03-06T21:38:25.986Z,74.73
2023-03-06T21:40:55.345Z,75.24
2023-03-06T21:43:22.757Z,75.69
2023-03-06T21:45:52.262Z,76.52
2023-03-06T21:48:19.331Z,76.02
2023-03-06T21:50:46.435Z,74.32
2023-03-06T21:53:14.820Z,73.25
2023-03-06T21:55:41.966Z,73.10
2023-03-06T21:58:10.548Z,73.24
2023-03-06T22:00:38.015Z,73.33
2023-03-06T22:03:06.079Z,73.61
2023-03-06T22:05:33.634Z,73.81
2023-03-06T22:08:01.627Z,74.25
2023-03-06T22:10:28.955Z,74.62
2023-03-06T22:12:57.334Z,74.80
2023-03-06T22:15:29.075Z,74.87
2023-03-06T22:17:58.495Z,74.97
2023-03-06T22:20:25.820Z,73.52
2023-03-06T22:22:56.787Z,72.60
2023-03-06T22:25:24.038Z,72.22
2023-03-06T22:27:51.123Z,72.24
2023-03-06T22:30:18.538Z,72.46
2023-03-06T22:32:45.925Z,73.08
2023-03-06T22:35:14.371Z,73.40
2023-03-06T22:37:43.771Z,73.97
2023-03-06T22:40:12.560Z,74.28
2023-03-06T22:42:42.081Z,74.95
2023-03-06T22:45:12.287Z,75.17
2023-03-06T22:47:39.743Z,74.08
2023-03-06T22:50:07.847Z,73.03
2023-03-06T22:52:35.063Z,72.65
2023-03-06T22:55:07.544Z,72.84
2023-03-06T22:57:34.969Z,72.99
2023-03-06T23:00:02.286Z,73.47
2023-03-06T23:02:34.727Z,73.78
2023-03-06T23:05:01.571Z,74.14
2023-03-06T23:07:34.171Z,74.51
2023-03-06T23:10:01.315Z,74.87
2023-03-06T23:12:47.696Z,75.33
2023-03-06T23:15:34.942Z,75.40
2023-03-06T23:18:21.933Z,73.86
2023-03-06T23:21:09.472Z,72.90
2023-03-06T23:23:57.021Z,72.94
2023-03-06T23:26:25.569Z,73.07
2023-03-06T23:28:52.928Z,73.56
2023-03-06T23:31:23.198Z,74.10
2023-03-06T23:33:50.604Z,74.72
2023-03-06T23:36:19.445Z,75.02
2023-03-06T23:38:46.671Z,75.48
2023-03-06T23:41:15.616Z,76.23
2023-03-06T23:43:43.808Z,75.35
2023-03-06T23:46:10.840Z,73.71
2023-03-06T23:48:39.135Z,73.19
2023-03-06T23:51:12.153Z,73.51
2023-03-06T23:53:40.881Z,74.07
2023-03-06T23:56:09.281Z,74.70
2023-03-06T23:58:36.658Z,75.15
